CYIV

Island Lake Airport

Island Lake, Manitoba, Canada
METAR CYIV 280000Z 30012G18KT 15SM FEW032 SCT062 BKN250 20/05 A2975 RMK CU1CU4CI2 CU TR SLP080 DENSITY ALT 1800FT
Observed Flight Rules
May-28 @ 00:00 UTC (an hour ago) Visual Flight Rules
Wind Visibility Clouds
300° at 12 knots
 Gusting to 18 knots
15 miles
  • Few at 3,200' AGL
  • Scattered at 6,200' AGL
  • Broken at 25,000' AGL
Temperatures Readings
Current 20°C / 68°F
Dewpoint 5°C / 41°F
Humidity 38%
Altimeter 29.75" Hg
Pressure 1008 hPa
Elevation 237
METAR CYIV 280000Z 30012G18KT 15SM FEW032 SCT062 BKN250 20/05 A2975 RMK CU1CU4CI2 CU TR SLP080 DENSITY ALT 1800FT
Observed Flight Rules
May-28 @ 00:00 UTC
(an hour ago)
VFR
Wind Visibility
300° at 12 knots
 Gusting to 18 knots
15 miles
Clouds
  • Few at 3,200' AGL
  • Scattered at 6,200' AGL
  • Broken at 25,000' AGL
Temperature Dewpoint
20°C / 68°F 5°C / 41°F
Humidity Altimeter Pressure
38% 29.75" Hg 1008 hPa